Annandale, Minnesota
Current Conditions -  °F | °C
As of 6:35 PM on Friday 31 Oct 2014 (Local Time) from KMGG Reporting Station
Clear Clear  
Wind Chill: 31°   Ceiling: Unl
Heat Index: 31°   Visibility: 10mi
Dew Point: 20°   Wind: 0mph
Humidity: 63%   Direction: NA
Pressure: 30.5"   Gusts: NA
Location:  45.26°N, 94.12°W
Report Text: KMGG 312335Z AUTO 00000KT 10SM CLR 00/M07 A3050 RMK AO2 T10041067
Loading
Personal Weather Stations






























Interactive Weather Map
Tropical Storm Tracking
New forecast layout! Learn more

10-Day Weather Forecast

Advertisements
Track Severe Weather on mobile